M I D A S
Marine Information and Data Acquisition System
Tripno 2231 of the Zeeleeuw from 2011-09-19 08:00:00 to 2011-09-19 17:00:00
Back to CruiseResearch ActivitiesStationsMapUnderway DataData graphs

EquipmentUnitsComment
TimeDGPSUTC
LatitudeDGPSDM.mWGS84
LongitudeDGPSDM.mWGS84
HeadingGyrodeg 
SOGDGPSknotsSpeed over ground
COGDGPSdegCourse over ground
DepthEcho soundermeters200 kHz
Missing or incorrect values are displayed as -999
Navigation data collected by the RV Zeeleeuw from 2011-09-19 08:00:00 to 2011-09-19 17:00:00
                                                                                    Next 1000 lines
Time Latitude Longitude Heading SOG COG Depth
2011-09-19 08:00:20 51°17.752 2°51.72 322.1 12.19 320 -999
2011-09-19 08:00:30 51°17.776 2°51.689 322.1 12.19 320 -999
2011-09-19 08:00:40 51°17.805 2°51.651 322.1 12.19 320 -999
2011-09-19 08:00:50 51°17.829 2°51.62 322.1 12.19 320 -999
2011-09-19 08:01:00 51°17.857 2°51.581 321.8 12.3 320 -999
2011-09-19 08:01:10 51°17.881 2°51.549 321.8 12.3 320 -999
2011-09-19 08:01:20 51°17.909 2°51.509 321.8 12.3 320 -999
2011-09-19 08:01:30 51°17.931 2°51.475 321.8 12.3 320 -999
2011-09-19 08:01:40 51°17.957 2°51.432 321.8 12.3 320 -999
2011-09-19 08:01:50 51°17.98 2°51.399 321.8 12.3 320 -999
2011-09-19 08:02:00 51°18.007 2°51.359 319.3 12.3 319 -999
2011-09-19 08:02:10 51°18.028 2°51.33 319.3 12.3 319 -999
2011-09-19 08:02:20 51°18.056 2°51.291 319.3 12.3 319 -999
2011-09-19 08:02:30 51°18.08 2°51.259 319.3 12.3 319 -999
2011-09-19 08:02:40 51°18.109 2°51.221 319.3 12.3 319 -999
2011-09-19 08:02:50 51°18.133 2°51.19 319.3 12.3 319 -999
2011-09-19 08:03:00 51°18.162 2°51.153 323.3 12.09 322 -999
2011-09-19 08:03:10 51°18.184 2°51.126 323.3 12.09 322 -999
2011-09-19 08:03:20 51°18.21 2°51.097 323.3 12.09 322 -999
2011-09-19 08:03:30 51°18.23 2°51.076 323.3 12.09 322 -999
2011-09-19 08:03:40 51°18.253 2°51.051 323.3 12.09 322 -999
2011-09-19 08:03:50 51°18.271 2°51.031 323.3 12.09 322 -999
2011-09-19 08:04:00 51°18.293 2°51.008 326.6 8.5 326 -999
2011-09-19 08:04:10 51°18.31 2°50.988 326.6 8.5 326 -999
2011-09-19 08:04:20 51°18.329 2°50.967 326.6 8.5 326 -999
2011-09-19 08:04:30 51°18.343 2°50.951 326.6 8.5 326 -999
2011-09-19 08:04:40 51°18.357 2°50.933 326.6 8.5 326 -999
2011-09-19 08:04:50 51°18.367 2°50.919 326.6 8.5 326 -999
2011-09-19 08:05:00 51°18.377 2°50.904 318.8 4.4 322 -999
2011-09-19 08:05:10 51°18.386 2°50.895 318.8 4.4 322 -999
2011-09-19 08:05:20 51°18.396 2°50.886 318.8 4.4 322 -999
2011-09-19 08:05:30 51°18.405 2°50.88 318.8 4.4 322 -999
2011-09-19 08:05:40 51°18.414 2°50.876 318.8 4.4 322 -999
2011-09-19 08:05:50 51°18.422 2°50.876 318.8 4.4 322 -999
2011-09-19 08:06:00 51°18.431 2°50.877 6.5 2.89 9 -999
2011-09-19 08:06:10 51°18.437 2°50.881 6.5 2.89 9 -999
2011-09-19 08:06:20 51°18.445 2°50.887 6.5 2.89 9 -999
2011-09-19 08:06:30 51°18.451 2°50.894 6.5 2.89 9 -999
2011-09-19 08:06:40 51°18.458 2°50.901 6.5 2.89 9 -999
2011-09-19 08:06:50 51°18.463 2°50.907 6.5 2.89 9 -999
2011-09-19 08:07:00 51°18.471 2°50.914 31.1 2.89 29 -999
2011-09-19 08:07:10 51°18.478 2°50.92 31.1 2.89 29 -999
2011-09-19 08:07:20 51°18.486 2°50.925 31.1 2.89 29 -999
2011-09-19 08:07:30 51°18.492 2°50.929 31.1 2.89 29 -999
2011-09-19 08:07:40 51°18.5 2°50.934 31.1 2.89 29 -999
2011-09-19 08:07:50 51°18.507 2°50.939 31.1 2.89 29 -999
2011-09-19 08:08:00 51°18.514 2°50.944 22.6 2.6 26 -999
2011-09-19 08:08:10 51°18.519 2°50.948 22.6 2.6 26 -999
2011-09-19 08:08:20 51°18.525 2°50.954 22.6 2.6 26 -999
2011-09-19 08:08:30 51°18.528 2°50.957 22.6 2.6 26 -999
2011-09-19 08:08:40 51°18.531 2°50.96 22.6 2.6 26 -999
2011-09-19 08:08:50 51°18.531 2°50.961 22.6 2.6 26 -999
2011-09-19 08:09:00 51°18.531 2°50.962 24.1 0.29 91 -999
2011-09-19 08:09:10 51°18.531 2°50.963 24.1 0.29 91 -999
2011-09-19 08:09:20 51°18.531 2°50.965 24.1 0.29 91 -999
2011-09-19 08:09:30 51°18.53 2°50.966 24.1 0.29 91 -999
2011-09-19 08:09:40 51°18.53 2°50.967 24.1 0.29 91 -999
2011-09-19 08:09:50 51°18.529 2°50.968 24.1 0.29 91 -999
2011-09-19 08:10:00 51°18.529 2°50.97 27.1 0.29 128 -999
2011-09-19 08:10:10 51°18.529 2°50.97 27.1 0.29 128 -999
2011-09-19 08:10:20 51°18.528 2°50.972 27.1 0.29 128 -999
2011-09-19 08:10:30 51°18.528 2°50.973 27.1 0.29 128 -999
2011-09-19 08:10:40 51°18.527 2°50.974 27.1 0.29 128 -999
2011-09-19 08:10:50 51°18.526 2°50.975 27.1 0.29 128 -999
2011-09-19 08:11:00 51°18.526 2°50.977 31.6 0.5 124 -999
2011-09-19 08:11:10 51°18.525 2°50.978 31.6 0.5 124 -999
2011-09-19 08:11:20 51°18.524 2°50.98 31.6 0.5 124 -999
2011-09-19 08:11:30 51°18.524 2°50.981 31.6 0.5 124 -999
2011-09-19 08:11:40 51°18.523 2°50.981 31.6 0.5 124 -999
2011-09-19 08:11:50 51°18.522 2°50.982 31.6 0.5 124 -999
2011-09-19 08:12:00 51°18.521 2°50.983 32 0.2 160 -999
2011-09-19 08:12:10 51°18.52 2°50.984 32 0.2 160 -999
2011-09-19 08:12:20 51°18.52 2°50.985 32 0.2 160 -999
2011-09-19 08:12:30 51°18.519 2°50.986 32 0.2 160 -999
2011-09-19 08:12:40 51°18.518 2°50.987 32 0.2 160 -999
2011-09-19 08:12:50 51°18.517 2°50.988 32 0.2 160 -999
2011-09-19 08:13:00 51°18.517 2°50.99 31.8 0.4 135 -999
2011-09-19 08:13:10 51°18.516 2°50.99 31.8 0.4 135 -999
2011-09-19 08:13:20 51°18.515 2°50.991 31.8 0.4 135 -999
2011-09-19 08:13:30 51°18.514 2°50.992 31.8 0.4 135 -999
2011-09-19 08:13:40 51°18.513 2°50.993 31.8 0.4 135 -999
2011-09-19 08:13:50 51°18.512 2°50.994 31.8 0.4 135 -999
2011-09-19 08:14:00 51°18.511 2°50.995 32.8 0.4 144 -999
2011-09-19 08:14:10 51°18.511 2°50.996 32.8 0.4 144 -999
2011-09-19 08:14:20 51°18.51 2°50.997 32.8 0.4 144 -999
2011-09-19 08:14:30 51°18.509 2°50.998 32.8 0.4 144 -999
2011-09-19 08:14:40 51°18.508 2°51 32.8 0.4 144 -999
2011-09-19 08:14:50 51°18.507 2°51 32.8 0.4 144 -999
2011-09-19 08:15:00 51°18.507 2°51.001 32.3 0.2 159 -999
2011-09-19 08:15:10 51°18.506 2°51.002 32.3 0.2 159 -999
2011-09-19 08:15:20 51°18.505 2°51.003 32.3 0.2 159 -999
2011-09-19 08:15:30 51°18.504 2°51.004 32.3 0.2 159 -999
2011-09-19 08:15:40 51°18.503 2°51.005 32.3 0.2 159 -999
2011-09-19 08:15:50 51°18.502 2°51.006 32.3 0.2 159 -999
2011-09-19 08:16:00 51°18.502 2°51.008 33.8 0.4 133 -999
2011-09-19 08:16:10 51°18.501 2°51.009 33.8 0.4 133 -999
2011-09-19 08:16:20 51°18.501 2°51.01 33.8 0.4 133 -999
2011-09-19 08:16:30 51°18.5 2°51.011 33.8 0.4 133 -999
2011-09-19 08:16:40 51°18.5 2°51.013 33.8 0.4 133 -999
2011-09-19 08:16:50 51°18.499 2°51.014 33.8 0.4 133 -999
2011-09-19 08:17:00 51°18.498 2°51.015 28.1 0.4 136 -999
2011-09-19 08:17:10 51°18.498 2°51.016 28.1 0.4 136 -999
2011-09-19 08:17:20 51°18.497 2°51.017 28.1 0.4 136 -999
2011-09-19 08:17:30 51°18.497 2°51.018 28.1 0.4 136 -999
2011-09-19 08:17:40 51°18.496 2°51.019 28.1 0.4 136 -999
2011-09-19 08:17:50 51°18.496 2°51.02 28.1 0.4 136 -999
2011-09-19 08:18:00 51°18.495 2°51.021 27.3 0.29 124 -999
2011-09-19 08:18:10 51°18.495 2°51.022 27.3 0.29 124 -999
2011-09-19 08:18:20 51°18.494 2°51.023 27.3 0.29 124 -999
2011-09-19 08:18:30 51°18.494 2°51.024 27.3 0.29 124 -999
2011-09-19 08:18:40 51°18.493 2°51.026 27.3 0.29 124 -999
2011-09-19 08:18:50 51°18.492 2°51.026 27.3 0.29 124 -999
2011-09-19 08:19:00 51°18.492 2°51.027 29.8 0.4 138 -999
2011-09-19 08:19:10 51°18.491 2°51.028 29.8 0.4 138 -999
2011-09-19 08:19:20 51°18.49 2°51.03 29.8 0.4 138 -999
2011-09-19 08:19:30 51°18.489 2°51.03 29.8 0.4 138 -999
2011-09-19 08:19:40 51°18.488 2°51.031 29.8 0.4 138 -999
2011-09-19 08:19:50 51°18.487 2°51.032 29.8 0.4 138 -999
2011-09-19 08:20:00 51°18.487 2°51.033 33.2 0.29 144 -999
2011-09-19 08:20:10 51°18.486 2°51.034 33.2 0.29 144 -999
2011-09-19 08:20:20 51°18.485 2°51.036 33.2 0.29 144 -999
2011-09-19 08:20:30 51°18.484 2°51.036 33.2 0.29 144 -999
2011-09-19 08:20:40 51°18.483 2°51.037 33.2 0.29 144 -999
2011-09-19 08:20:50 51°18.483 2°51.038 33.2 0.29 144 -999
2011-09-19 08:21:00 51°18.482 2°51.039 31.8 0.4 144 -999
2011-09-19 08:21:10 51°18.481 2°51.04 31.8 0.4 144 -999
2011-09-19 08:21:20 51°18.481 2°51.041 31.8 0.4 144 -999
2011-09-19 08:21:30 51°18.48 2°51.042 31.8 0.4 144 -999
2011-09-19 08:21:40 51°18.479 2°51.042 31.8 0.4 144 -999
2011-09-19 08:21:50 51°18.478 2°51.044 31.8 0.4 144 -999
2011-09-19 08:22:00 51°18.477 2°51.044 25.8 0.29 130 -999
2011-09-19 08:22:10 51°18.477 2°51.045 25.8 0.29 130 -999
2011-09-19 08:22:20 51°18.476 2°51.046 25.8 0.29 130 -999
2011-09-19 08:22:30 51°18.475 2°51.047 25.8 0.29 130 -999
2011-09-19 08:22:40 51°18.475 2°51.047 25.8 0.29 130 -999
2011-09-19 08:22:50 51°18.474 2°51.048 25.8 0.29 130 -999
2011-09-19 08:23:00 51°18.474 2°51.049 20.8 0.2 132 -999
2011-09-19 08:23:10 51°18.473 2°51.05 20.8 0.2 132 -999
2011-09-19 08:23:20 51°18.472 2°51.051 20.8 0.2 132 -999
2011-09-19 08:23:30 51°18.472 2°51.052 20.8 0.2 132 -999
2011-09-19 08:23:40 51°18.471 2°51.053 20.8 0.2 132 -999
2011-09-19 08:23:50 51°18.471 2°51.054 20.8 0.2 132 -999
2011-09-19 08:24:00 51°18.47 2°51.055 23.3 0.2 134 -999
2011-09-19 08:24:10 51°18.469 2°51.055 23.3 0.2 134 -999
2011-09-19 08:24:20 51°18.468 2°51.056 23.3 0.2 134 -999
2011-09-19 08:24:30 51°18.468 2°51.057 23.3 0.2 134 -999
2011-09-19 08:24:40 51°18.467 2°51.058 23.3 0.2 134 -999
2011-09-19 08:24:50 51°18.466 2°51.059 23.3 0.2 134 -999
2011-09-19 08:25:00 51°18.465 2°51.059 26.1 0.4 154 -999
2011-09-19 08:25:10 51°18.464 2°51.06 26.1 0.4 154 -999
2011-09-19 08:25:20 51°18.463 2°51.062 26.1 0.4 154 -999
2011-09-19 08:25:30 51°18.462 2°51.062 26.1 0.4 154 -999
2011-09-19 08:25:40 51°18.461 2°51.062 26.1 0.4 154 -999
2011-09-19 08:25:50 51°18.46 2°51.063 26.1 0.4 154 -999
2011-09-19 08:26:00 51°18.459 2°51.065 31.6 0.5 142 -999
2011-09-19 08:26:10 51°18.458 2°51.065 31.6 0.5 142 -999
2011-09-19 08:26:20 51°18.457 2°51.066 31.6 0.5 142 -999
2011-09-19 08:26:30 51°18.456 2°51.068 31.6 0.5 142 -999
2011-09-19 08:26:40 51°18.455 2°51.069 31.6 0.5 142 -999
2011-09-19 08:26:50 51°18.454 2°51.069 31.6 0.5 142 -999
2011-09-19 08:27:00 51°18.453 2°51.07 33.7 0.5 148 -999
2011-09-19 08:27:10 51°18.452 2°51.071 33.7 0.5 148 -999
2011-09-19 08:27:20 51°18.451 2°51.072 33.7 0.5 148 -999
2011-09-19 08:27:30 51°18.45 2°51.073 33.7 0.5 148 -999
2011-09-19 08:27:40 51°18.449 2°51.074 33.7 0.5 148 -999
2011-09-19 08:27:50 51°18.448 2°51.075 33.7 0.5 148 -999
2011-09-19 08:28:00 51°18.447 2°51.075 32.6 0.5 150 -999
2011-09-19 08:28:10 51°18.446 2°51.076 32.6 0.5 150 -999
2011-09-19 08:28:20 51°18.444 2°51.078 32.6 0.5 150 -999
2011-09-19 08:28:30 51°18.444 2°51.078 32.6 0.5 150 -999
2011-09-19 08:28:40 51°18.442 2°51.079 32.6 0.5 150 -999
2011-09-19 08:28:50 51°18.442 2°51.08 32.6 0.5 150 -999
2011-09-19 08:29:00 51°18.441 2°51.08 31.5 0.4 161 -999
2011-09-19 08:29:10 51°18.44 2°51.081 31.5 0.4 161 -999
2011-09-19 08:29:20 51°18.439 2°51.081 31.5 0.4 161 -999
2011-09-19 08:29:30 51°18.439 2°51.082 31.5 0.4 161 -999
2011-09-19 08:29:40 51°18.438 2°51.083 31.5 0.4 161 -999
2011-09-19 08:29:50 51°18.436 2°51.084 31.5 0.4 161 -999
2011-09-19 08:30:00 51°18.436 2°51.084 26.1 0.4 151 -999
2011-09-19 08:30:10 51°18.435 2°51.085 26.1 0.4 151 -999
2011-09-19 08:30:20 51°18.434 2°51.086 26.1 0.4 151 -999
2011-09-19 08:30:30 51°18.433 2°51.087 26.1 0.4 151 -999
2011-09-19 08:30:40 51°18.432 2°51.088 26.1 0.4 151 -999
2011-09-19 08:30:50 51°18.431 2°51.088 26.1 0.4 151 -999
2011-09-19 08:31:00 51°18.43 2°51.089 23.5 0.4 156 -999
2011-09-19 08:31:10 51°18.429 2°51.089 23.5 0.4 156 -999
2011-09-19 08:31:20 51°18.428 2°51.09 23.5 0.4 156 -999
2011-09-19 08:31:30 51°18.427 2°51.09 23.5 0.4 156 -999
2011-09-19 08:31:40 51°18.427 2°51.091 23.5 0.4 156 -999
2011-09-19 08:31:50 51°18.427 2°51.093 23.5 0.4 156 -999
2011-09-19 08:32:00 51°18.429 2°51.096 26.8 1 42 -999
2011-09-19 08:32:10 51°18.433 2°51.1 26.8 1 42 -999
2011-09-19 08:32:20 51°18.439 2°51.106 26.8 1 42 -999
2011-09-19 08:32:30 51°18.447 2°51.115 26.8 1 42 -999
2011-09-19 08:32:40 51°18.458 2°51.129 26.8 1 42 -999
2011-09-19 08:32:50 51°18.468 2°51.146 26.8 1 42 -999
2011-09-19 08:33:00 51°18.481 2°51.173 52.1 7.09 57 -999
2011-09-19 08:33:10 51°18.49 2°51.203 52.1 7.09 57 -999
2011-09-19 08:33:20 51°18.496 2°51.237 52.1 7.09 57 -999
2011-09-19 08:33:30 51°18.503 2°51.275 52.1 7.09 57 -999
2011-09-19 08:33:40 51°18.511 2°51.316 52.1 7.09 57 -999
2011-09-19 08:33:50 51°18.519 2°51.355 52.1 7.09 57 -999
2011-09-19 08:34:00 51°18.528 2°51.405 72.2 10.9 74 -999
2011-09-19 08:34:10 51°18.536 2°51.443 72.2 10.9 74 -999
2011-09-19 08:34:20 51°18.547 2°51.497 72.2 10.9 74 -999
2011-09-19 08:34:30 51°18.556 2°51.541 72.2 10.9 74 -999
2011-09-19 08:34:40 51°18.568 2°51.595 72.2 10.9 74 -999
2011-09-19 08:34:50 51°18.576 2°51.64 72.2 10.9 74 -999
2011-09-19 08:35:00 51°18.588 2°51.695 71.5 11.9 71 -999
2011-09-19 08:35:10 51°18.597 2°51.741 71.5 11.9 71 -999
2011-09-19 08:35:20 51°18.608 2°51.796 71.5 11.9 71 -999
2011-09-19 08:35:30 51°18.617 2°51.841 71.5 11.9 71 -999
2011-09-19 08:35:40 51°18.628 2°51.897 71.5 11.9 71 -999
2011-09-19 08:35:50 51°18.636 2°51.944 71.5 11.9 71 -999
2011-09-19 08:36:00 51°18.646 2°52 75.5 12 75 -999
2011-09-19 08:36:10 51°18.655 2°52.046 75.5 12 75 -999
2011-09-19 08:36:20 51°18.666 2°52.101 75.5 12 75 -999
2011-09-19 08:36:30 51°18.675 2°52.146 75.5 12 75 -999
2011-09-19 08:36:40 51°18.687 2°52.2 75.5 12 75 -999
2011-09-19 08:36:50 51°18.698 2°52.25 75.5 12 75 -999
2011-09-19 08:37:00 51°18.709 2°52.299 70 11.9 69 -999
2011-09-19 08:37:10 51°18.719 2°52.344 70 11.9 69 -999
2011-09-19 08:37:20 51°18.731 2°52.398 70 11.9 69 -999
2011-09-19 08:37:30 51°18.741 2°52.442 70 11.9 69 -999
2011-09-19 08:37:40 51°18.753 2°52.496 70 11.9 69 -999
2011-09-19 08:37:50 51°18.764 2°52.541 70 11.9 69 -999
2011-09-19 08:38:00 51°18.778 2°52.594 69.2 11.9 69 -999
2011-09-19 08:38:10 51°18.788 2°52.638 69.2 11.9 69 -999
2011-09-19 08:38:20 51°18.801 2°52.692 69.2 11.9 69 -999
2011-09-19 08:38:30 51°18.811 2°52.736 69.2 11.9 69 -999
2011-09-19 08:38:40 51°18.823 2°52.791 69.2 11.9 69 -999
2011-09-19 08:38:50 51°18.832 2°52.835 69.2 11.9 69 -999
2011-09-19 08:39:00 51°18.842 2°52.89 74.5 11.8 73 -999
2011-09-19 08:39:10 51°18.853 2°52.945 74.5 11.8 73 -999
2011-09-19 08:39:20 51°18.862 2°52.995 74.5 11.8 73 -999
2011-09-19 08:39:30 51°18.872 2°53.04 74.5 11.8 73 -999
2011-09-19 08:39:40 51°18.884 2°53.093 74.5 11.8 73 -999
2011-09-19 08:39:50 51°18.893 2°53.138 74.5 11.8 73 -999
2011-09-19 08:40:00 51°18.904 2°53.192 73.2 11.69 67 -999
2011-09-19 08:40:10 51°18.913 2°53.241 73.2 11.69 67 -999
2011-09-19 08:40:20 51°18.924 2°53.29 73.2 11.69 67 -999
2011-09-19 08:40:30 51°18.933 2°53.335 73.2 11.69 67 -999
2011-09-19 08:40:40 51°18.944 2°53.39 73.2 11.69 67 -999
2011-09-19 08:40:50 51°18.954 2°53.434 73.2 11.69 67 -999
2011-09-19 08:41:00 51°18.965 2°53.489 73.5 11.8 72 -999
2011-09-19 08:41:10 51°18.975 2°53.538 73.5 11.8 72 -999
2011-09-19 08:41:20 51°18.985 2°53.588 73.5 11.8 72 -999
2011-09-19 08:41:30 51°18.997 2°53.637 73.5 11.8 72 -999
2011-09-19 08:41:40 51°19.007 2°53.686 73.5 11.8 72 -999
2011-09-19 08:41:50 51°19.017 2°53.731 73.5 11.8 72 -999
2011-09-19 08:42:00 51°19.028 2°53.785 71.2 11.69 71 -999
2011-09-19 08:42:10 51°19.037 2°53.824 71.2 11.69 71 -999
2011-09-19 08:42:20 51°19.049 2°53.877 71.2 11.69 71 -999
2011-09-19 08:42:30 51°19.059 2°53.92 71.2 11.69 71 -999
2011-09-19 08:42:40 51°19.071 2°53.973 71.2 11.69 71 -999
2011-09-19 08:42:50 51°19.081 2°54.017 71.2 11.69 71 -999
2011-09-19 08:43:00 51°19.092 2°54.072 71.4 11.8 71 -999
2011-09-19 08:43:10 51°19.1 2°54.116 71.4 11.8 71 -999
2011-09-19 08:43:20 51°19.112 2°54.171 71.4 11.8 71 -999
2011-09-19 08:43:30 51°19.121 2°54.215 71.4 11.8 71 -999
2011-09-19 08:43:40 51°19.133 2°54.269 71.4 11.8 71 -999
2011-09-19 08:43:50 51°19.143 2°54.313 71.4 11.8 71 -999
2011-09-19 08:44:00 51°19.154 2°54.366 70.2 11.69 73 -999
2011-09-19 08:44:10 51°19.163 2°54.411 70.2 11.69 73 -999
2011-09-19 08:44:20 51°19.173 2°54.466 70.2 11.69 73 -999
2011-09-19 08:44:30 51°19.183 2°54.51 70.2 11.69 73 -999
2011-09-19 08:44:40 51°19.194 2°54.564 70.2 11.69 73 -999
2011-09-19 08:44:50 51°19.204 2°54.608 70.2 11.69 73 -999
2011-09-19 08:45:00 51°19.215 2°54.662 73 11.59 73 -999
2011-09-19 08:45:10 51°19.224 2°54.706 73 11.59 73 -999
2011-09-19 08:45:20 51°19.234 2°54.761 73 11.59 73 -999
2011-09-19 08:45:30 51°19.245 2°54.81 73 11.59 73 -999
2011-09-19 08:45:40 51°19.256 2°54.86 73 11.59 73 -999
2011-09-19 08:45:50 51°19.265 2°54.903 73 11.59 73 -999
2011-09-19 08:46:00 51°19.275 2°54.958 71.2 11.69 73 -999
2011-09-19 08:46:10 51°19.284 2°55.007 71.2 11.69 73 -999
2011-09-19 08:46:20 51°19.296 2°55.061 71.2 11.69 73 -999
2011-09-19 08:46:30 51°19.305 2°55.105 71.2 11.69 73 -999
2011-09-19 08:46:40 51°19.317 2°55.16 71.2 11.69 73 -999
2011-09-19 08:46:50 51°19.326 2°55.209 71.2 11.69 73 -999
2011-09-19 08:47:00 51°19.336 2°55.259 73.2 11.69 71 -999
2011-09-19 08:47:10 51°19.344 2°55.303 73.2 11.69 71 -999
2011-09-19 08:47:20 51°19.356 2°55.357 73.2 11.69 71 -999
2011-09-19 08:47:30 51°19.366 2°55.401 73.2 11.69 71 -999
2011-09-19 08:47:40 51°19.377 2°55.454 73.2 11.69 71 -999
2011-09-19 08:47:50 51°19.388 2°55.502 73.2 11.69 71 -999
2011-09-19 08:48:00 51°19.398 2°55.551 71.2 11.59 72 -999
2011-09-19 08:48:10 51°19.406 2°55.596 71.2 11.59 72 -999
2011-09-19 08:48:20 51°19.418 2°55.649 71.2 11.59 72 -999
2011-09-19 08:48:30 51°19.427 2°55.693 71.2 11.59 72 -999
2011-09-19 08:48:40 51°19.439 2°55.746 71.2 11.59 72 -999
2011-09-19 08:48:50 51°19.45 2°55.796 71.2 11.59 72 -999
2011-09-19 08:49:00 51°19.462 2°55.844 68.7 11.8 70 -999
2011-09-19 08:49:10 51°19.471 2°55.883 68.7 11.8 70 -999
2011-09-19 08:49:20 51°19.482 2°55.936 68.7 11.8 70 -999
2011-09-19 08:49:30 51°19.491 2°55.98 68.7 11.8 70 -999
2011-09-19 08:49:40 51°19.502 2°56.034 68.7 11.8 70 -999
2011-09-19 08:49:50 51°19.51 2°56.077 68.7 11.8 70 -999
2011-09-19 08:50:00 51°19.52 2°56.132 72.2 11.8 71 -999
2011-09-19 08:50:10 51°19.527 2°56.177 72.2 11.8 71 -999
2011-09-19 08:50:20 51°19.539 2°56.23 72.2 11.8 71 -999
2011-09-19 08:50:30 51°19.548 2°56.275 72.2 11.8 71 -999
2011-09-19 08:50:40 51°19.56 2°56.328 72.2 11.8 71 -999
2011-09-19 08:50:50 51°19.568 2°56.374 72.2 11.8 71 -999
2011-09-19 08:51:00 51°19.577 2°56.429 73.7 11.59 74 -999
2011-09-19 08:51:10 51°19.587 2°56.478 73.7 11.59 74 -999
2011-09-19 08:51:20 51°19.597 2°56.528 73.7 11.59 74 -999
2011-09-19 08:51:30 51°19.608 2°56.571 73.7 11.59 74 -999
2011-09-19 08:51:40 51°19.62 2°56.625 73.7 11.59 74 -999
2011-09-19 08:51:50 51°19.629 2°56.668 73.7 11.59 74 -999
2011-09-19 08:52:00 51°19.64 2°56.723 72 11.9 70 -999
2011-09-19 08:52:10 51°19.65 2°56.772 72 11.9 70 -999
2011-09-19 08:52:20 51°19.661 2°56.82 72 11.9 70 -999
2011-09-19 08:52:30 51°19.67 2°56.864 72 11.9 70 -999
2011-09-19 08:52:40 51°19.681 2°56.919 72 11.9 70 -999
2011-09-19 08:52:50 51°19.689 2°56.963 72 11.9 70 -999
2011-09-19 08:53:00 51°19.7 2°57.018 72.2 11.9 73 -999
2011-09-19 08:53:10 51°19.71 2°57.067 72.2 11.9 73 -999
2011-09-19 08:53:20 51°19.72 2°57.116 72.2 11.9 73 -999
2011-09-19 08:53:30 51°19.729 2°57.16 72.2 11.9 73 -999
2011-09-19 08:53:40 51°19.742 2°57.212 72.2 11.9 73 -999
2011-09-19 08:53:50 51°19.752 2°57.255 72.2 11.9 73 -999
2011-09-19 08:54:00 51°19.765 2°57.307 68.2 11.5 66 -999
2011-09-19 08:54:10 51°19.776 2°57.355 68.2 11.5 66 -999
2011-09-19 08:54:20 51°19.788 2°57.408 68.2 11.5 66 -999
2011-09-19 08:54:30 51°19.798 2°57.451 68.2 11.5 66 -999
2011-09-19 08:54:40 51°19.81 2°57.505 68.2 11.5 66 -999
2011-09-19 08:54:50 51°19.819 2°57.549 68.2 11.5 66 -999
2011-09-19 08:55:00 51°19.828 2°57.603 74 11.59 74 -999
2011-09-19 08:55:10 51°19.833 2°57.648 74 11.59 74 -999
2011-09-19 08:55:20 51°19.842 2°57.703 74 11.59 74 -999
2011-09-19 08:55:30 51°19.848 2°57.748 74 11.59 74 -999
2011-09-19 08:55:40 51°19.855 2°57.802 74 11.59 74 -999
2011-09-19 08:55:50 51°19.863 2°57.846 74 11.59 74 -999
2011-09-19 08:56:00 51°19.871 2°57.901 76.2 11.59 73 -999
2011-09-19 08:56:10 51°19.878 2°57.946 76.2 11.59 73 -999
2011-09-19 08:56:20 51°19.887 2°57.999 76.2 11.59 73 -999
2011-09-19 08:56:30 51°19.895 2°58.044 76.2 11.59 73 -999
2011-09-19 08:56:40 51°19.903 2°58.098 76.2 11.59 73 -999
2011-09-19 08:56:50 51°19.913 2°58.146 76.2 11.59 73 -999
2011-09-19 08:57:00 51°19.921 2°58.194 73.5 11.4 76 -999
2011-09-19 08:57:10 51°19.928 2°58.233 73.5 11.4 76 -999
2011-09-19 08:57:20 51°19.937 2°58.286 73.5 11.4 76 -999
2011-09-19 08:57:30 51°19.944 2°58.33 73.5 11.4 76 -999
2011-09-19 08:57:40 51°19.952 2°58.385 73.5 11.4 76 -999
2011-09-19 08:57:50 51°19.958 2°58.429 73.5 11.4 76 -999
2011-09-19 08:58:00 51°19.967 2°58.483 73.7 11.69 76 -999
2011-09-19 08:58:10 51°19.975 2°58.527 73.7 11.69 76 -999
2011-09-19 08:58:20 51°19.984 2°58.58 73.7 11.69 76 -999
2011-09-19 08:58:30 51°19.993 2°58.623 73.7 11.69 76 -999
2011-09-19 08:58:40 51°20.003 2°58.677 73.7 11.69 76 -999
2011-09-19 08:58:50 51°20.011 2°58.72 73.7 11.69 76 -999
2011-09-19 08:59:00 51°20.021 2°58.772 71.4 11.3 73 -999
2011-09-19 08:59:10 51°20.029 2°58.816 71.4 11.3 73 -999
2011-09-19 08:59:20 51°20.037 2°58.869 71.4 11.3 73 -999
2011-09-19 08:59:30 51°20.045 2°58.913 71.4 11.3 73 -999
2011-09-19 08:59:40 51°20.053 2°58.967 71.4 11.3 73 -999
2011-09-19 08:59:50 51°20.059 2°59.012 71.4 11.3 73 -999
2011-09-19 09:00:00 51°20.067 2°59.065 75.7 11.19 79 -999
2011-09-19 09:00:10 51°20.074 2°59.11 75.7 11.19 79 -999
2011-09-19 09:00:20 51°20.082 2°59.164 75.7 11.19 79 -999
2011-09-19 09:00:30 51°20.091 2°59.208 75.7 11.19 79 -999
2011-09-19 09:00:40 51°20.099 2°59.262 75.7 11.19 79 -999
2011-09-19 09:00:50 51°20.107 2°59.306 75.7 11.19 79 -999
2011-09-19 09:01:00 51°20.115 2°59.361 74.7 11.5 78 -999
2011-09-19 09:01:10 51°20.123 2°59.409 74.7 11.5 78 -999
2011-09-19 09:01:20 51°20.13 2°59.458 74.7 11.5 78 -999
2011-09-19 09:01:30 51°20.137 2°59.502 74.7 11.5 78 -999
2011-09-19 09:01:40 51°20.147 2°59.554 74.7 11.5 78 -999
2011-09-19 09:01:50 51°20.152 2°59.598 74.7 11.5 78 -999
2011-09-19 09:02:00 51°20.161 2°59.652 74.7 11.4 78 -999
2011-09-19 09:02:10 51°20.17 2°59.699 74.7 11.4 78 -999
2011-09-19 09:02:20 51°20.179 2°59.752 74.7 11.4 78 -999
2011-09-19 09:02:30 51°20.188 2°59.8 74.7 11.4 78 -999
2011-09-19 09:02:40 51°20.196 2°59.848 74.7 11.4 78 -999
2011-09-19 09:02:50 51°20.202 2°59.892 74.7 11.4 78 -999
2011-09-19 09:03:00 51°20.21 2°59.946 74.7 11.3 77 -999
2011-09-19 09:03:10 51°20.217 2°59.99 74.7 11.3 77 -999
2011-09-19 09:03:20 51°20.226 3°0.043 74.7 11.3 77 -999
2011-09-19 09:03:30 51°20.236 3°0.09 74.7 11.3 77 -999
2011-09-19 09:03:40 51°20.244 3°0.139 74.7 11.3 77 -999
2011-09-19 09:03:50 51°20.25 3°0.182 74.7 11.3 77 -999
2011-09-19 09:04:00 51°20.261 3°0.234 71.4 11.19 71 -999
2011-09-19 09:04:10 51°20.268 3°0.271 71.4 11.19 71 -999
2011-09-19 09:04:20 51°20.277 3°0.324 71.4 11.19 71 -999
2011-09-19 09:04:30 51°20.283 3°0.366 71.4 11.19 71 -999
2011-09-19 09:04:40 51°20.291 3°0.419 71.4 11.19 71 -999
2011-09-19 09:04:50 51°20.297 3°0.462 71.4 11.19 71 -999
2011-09-19 09:05:00 51°20.306 3°0.515 74.9 11.19 75 -999
2011-09-19 09:05:10 51°20.313 3°0.558 74.9 11.19 75 -999
2011-09-19 09:05:20 51°20.323 3°0.611 74.9 11.19 75 -999
2011-09-19 09:05:30 51°20.331 3°0.654 74.9 11.19 75 -999
2011-09-19 09:05:40 51°20.341 3°0.706 74.9 11.19 75 -999
2011-09-19 09:05:50 51°20.35 3°0.749 74.9 11.19 75 -999
2011-09-19 09:06:00 51°20.36 3°0.802 72.7 11.5 75 -999
2011-09-19 09:06:10 51°20.368 3°0.845 72.7 11.5 75 -999
2011-09-19 09:06:20 51°20.378 3°0.897 72.7 11.5 75 -999
2011-09-19 09:06:30 51°20.385 3°0.94 72.7 11.5 75 -999
2011-09-19 09:06:40 51°20.393 3°0.993 72.7 11.5 75 -999
2011-09-19 09:06:50 51°20.4 3°1.037 72.7 11.5 75 -999
2011-09-19 09:07:00 51°20.409 3°1.089 74.5 11.19 74 -999
2011-09-19 09:07:10 51°20.416 3°1.132 74.5 11.19 74 -999
2011-09-19 09:07:20 51°20.426 3°1.183 74.5 11.19 74 -999
2011-09-19 09:07:30 51°20.432 3°1.227 74.5 11.19 74 -999
2011-09-19 09:07:40 51°20.441 3°1.278 74.5 11.19 74 -999
2011-09-19 09:07:50 51°20.449 3°1.326 74.5 11.19 74 -999
2011-09-19 09:08:00 51°20.457 3°1.373 75 11 77 -999
2011-09-19 09:08:10 51°20.464 3°1.415 75 11 77 -999
2011-09-19 09:08:20 51°20.471 3°1.467 75 11 77 -999
2011-09-19 09:08:30 51°20.478 3°1.51 75 11 77 -999
2011-09-19 09:08:40 51°20.485 3°1.563 75 11 77 -999
2011-09-19 09:08:50 51°20.493 3°1.61 75 11 77 -999
2011-09-19 09:09:00 51°20.502 3°1.656 73.9 11 75 -999
2011-09-19 09:09:10 51°20.511 3°1.708 73.9 11 75 -999
2011-09-19 09:09:20 51°20.519 3°1.756 73.9 11 75 -999
2011-09-19 09:09:30 51°20.525 3°1.799 73.9 11 75 -999
2011-09-19 09:09:40 51°20.533 3°1.851 73.9 11 75 -999
2011-09-19 09:09:50 51°20.54 3°1.894 73.9 11 75 -999
2011-09-19 09:10:00 51°20.548 3°1.947 76.5 11 76 -999
2011-09-19 09:10:10 51°20.555 3°1.995 76.5 11 76 -999
2011-09-19 09:10:20 51°20.563 3°2.04 76.5 11 76 -999
2011-09-19 09:10:30 51°20.57 3°2.078 76.5 11 76 -999
2011-09-19 09:10:40 51°20.579 3°2.121 76.5 11 76 -999
2011-09-19 09:10:50 51°20.584 3°2.154 76.5 11 76 -999
2011-09-19 09:11:00 51°20.591 3°2.192 72.5 7.9 74 -999
2011-09-19 09:11:10 51°20.596 3°2.223 72.5 7.9 74 -999
2011-09-19 09:11:20 51°20.6 3°2.251 72.5 7.9 74 -999
2011-09-19 09:11:30 51°20.604 3°2.276 72.5 7.9 74 -999
2011-09-19 09:11:40 51°20.607 3°2.299 72.5 7.9 74 -999
2011-09-19 09:11:50 51°20.611 3°2.318 72.5 7.9 74 -999
2011-09-19 09:12:00 51°20.616 3°2.339 70.7 4.2 70 -999
2011-09-19 09:12:10 51°20.619 3°2.35 70.7 4.2 70 -999
2011-09-19 09:12:20 51°20.625 3°2.363 70.7 4.2 70 -999
2011-09-19 09:12:30 51°20.631 3°2.371 70.7 4.2 70 -999
2011-09-19 09:12:40 51°20.638 3°2.377 70.7 4.2 70 -999
2011-09-19 09:12:50 51°20.645 3°2.38 70.7 4.2 70 -999
2011-09-19 09:13:00 51°20.653 3°2.382 21.5 2.7 7 -999
2011-09-19 09:13:10 51°20.659 3°2.385 21.5 2.7 7 -999
2011-09-19 09:13:20 51°20.666 3°2.39 21.5 2.7 7 -999
2011-09-19 09:13:30 51°20.671 3°2.395 21.5 2.7 7 -999
2011-09-19 09:13:40 51°20.676 3°2.403 21.5 2.7 7 -999
2011-09-19 09:13:50 51°20.678 3°2.411 21.5 2.7 7 -999
2011-09-19 09:14:00 51°20.68 3°2.422 71.9 2.39 79 -999
2011-09-19 09:14:10 51°20.681 3°2.432 71.9 2.39 79 -999
2011-09-19 09:14:20 51°20.682 3°2.444 71.9 2.39 79 -999
2011-09-19 09:14:30 51°20.683 3°2.456 71.9 2.39 79 -999
2011-09-19 09:14:40 51°20.685 3°2.468 71.9 2.39 79 -999
2011-09-19 09:14:50 51°20.687 3°2.479 71.9 2.39 79 -999
2011-09-19 09:15:00 51°20.69 3°2.492 65.7 2.79 66 -999
2011-09-19 09:15:10 51°20.693 3°2.501 65.7 2.79 66 -999
2011-09-19 09:15:20 51°20.698 3°2.513 65.7 2.79 66 -999
2011-09-19 09:15:30 51°20.703 3°2.522 65.7 2.79 66 -999
2011-09-19 09:15:40 51°20.708 3°2.532 65.7 2.79 66 -999
2011-09-19 09:15:50 51°20.713 3°2.539 65.7 2.79 66 -999
2011-09-19 09:16:00 51°20.718 3°2.547 46.3 2.2 39 -999
2011-09-19 09:16:10 51°20.722 3°2.551 46.3 2.2 39 -999
2011-09-19 09:16:20 51°20.726 3°2.554 46.3 2.2 39 -999
2011-09-19 09:16:30 51°20.729 3°2.554 46.3 2.2 39 -999
2011-09-19 09:16:40 51°20.731 3°2.552 46.3 2.2 39 -999
2011-09-19 09:16:50 51°20.732 3°2.55 46.3 2.2 39 -999
2011-09-19 09:17:00 51°20.732 3°2.547 17.3 0.59 279 -999
2011-09-19 09:17:10 51°20.732 3°2.544 17.3 0.59 279 -999
2011-09-19 09:17:20 51°20.732 3°2.541 17.3 0.59 279 -999
2011-09-19 09:17:30 51°20.731 3°2.539 17.3 0.59 279 -999
2011-09-19 09:17:40 51°20.731 3°2.535 17.3 0.59 279 -999
2011-09-19 09:17:50 51°20.73 3°2.533 17.3 0.59 279 -999
2011-09-19 09:18:00 51°20.729 3°2.53 9 0.8 246 -999
2011-09-19 09:18:10 51°20.728 3°2.527 9 0.8 246 -999
2011-09-19 09:18:20 51°20.727 3°2.524 9 0.8 246 -999
2011-09-19 09:18:30 51°20.726 3°2.522 9 0.8 246 -999
2011-09-19 09:18:40 51°20.724 3°2.52 9 0.8 246 -999
2011-09-19 09:18:50 51°20.723 3°2.517 9 0.8 246 -999
2011-09-19 09:19:00 51°20.721 3°2.514 13 0.9 210 -999
2011-09-19 09:19:10 51°20.719 3°2.512 13 0.9 210 -999
2011-09-19 09:19:20 51°20.717 3°2.509 13 0.9 210 -999
2011-09-19 09:19:30 51°20.716 3°2.507 13 0.9 210 -999
2011-09-19 09:19:40 51°20.713 3°2.504 13 0.9 210 -999
2011-09-19 09:19:50 51°20.711 3°2.502 13 0.9 210 -999
2011-09-19 09:20:00 51°20.709 3°2.499 22.1 1 220 -999
2011-09-19 09:20:10 51°20.707 3°2.497 22.1 1 220 -999
2011-09-19 09:20:20 51°20.705 3°2.493 22.1 1 220 -999
2011-09-19 09:20:30 51°20.703 3°2.49 22.1 1 220 -999
2011-09-19 09:20:40 51°20.701 3°2.487 22.1 1 220 -999
2011-09-19 09:20:50 51°20.699 3°2.484 22.1 1 220 -999
2011-09-19 09:21:00 51°20.696 3°2.481 27.8 1.1 223 -999
2011-09-19 09:21:10 51°20.694 3°2.478 27.8 1.1 223 -999
2011-09-19 09:21:20 51°20.692 3°2.475 27.8 1.1 223 -999
2011-09-19 09:21:30 51°20.69 3°2.472 27.8 1.1 223 -999
2011-09-19 09:21:40 51°20.688 3°2.469 27.8 1.1 223 -999
2011-09-19 09:21:50 51°20.686 3°2.466 27.8 1.1 223 -999
2011-09-19 09:22:00 51°20.683 3°2.463 34.2 1.1 226 -999
2011-09-19 09:22:10 51°20.681 3°2.46 34.2 1.1 226 -999
2011-09-19 09:22:20 51°20.679 3°2.457 34.2 1.1 226 -999
2011-09-19 09:22:30 51°20.677 3°2.454 34.2 1.1 226 -999
2011-09-19 09:22:40 51°20.674 3°2.451 34.2 1.1 226 -999
2011-09-19 09:22:50 51°20.672 3°2.448 34.2 1.1 226 -999
2011-09-19 09:23:00 51°20.67 3°2.444 36.5 1.1 223 -999
2011-09-19 09:23:10 51°20.668 3°2.441 36.5 1.1 223 -999
2011-09-19 09:23:20 51°20.665 3°2.437 36.5 1.1 223 -999
2011-09-19 09:23:30 51°20.663 3°2.434 36.5 1.1 223 -999
2011-09-19 09:23:40 51°20.661 3°2.431 36.5 1.1 223 -999
2011-09-19 09:23:50 51°20.659 3°2.428 36.5 1.1 223 -999
2011-09-19 09:24:00 51°20.656 3°2.425 38.6 1 216 -999
2011-09-19 09:24:10 51°20.655 3°2.422 38.6 1 216 -999
2011-09-19 09:24:20 51°20.652 3°2.418 38.6 1 216 -999
2011-09-19 09:24:30 51°20.65 3°2.415 38.6 1 216 -999
2011-09-19 09:24:40 51°20.648 3°2.412 38.6 1 216 -999
2011-09-19 09:24:50 51°20.646 3°2.409 38.6 1 216 -999
2011-09-19 09:25:00 51°20.644 3°2.405 36.2 1.1 222 -999
2011-09-19 09:25:10 51°20.642 3°2.402 36.2 1.1 222 -999
2011-09-19 09:25:20 51°20.64 3°2.399 36.2 1.1 222 -999
2011-09-19 09:25:30 51°20.637 3°2.396 36.2 1.1 222 -999
2011-09-19 09:25:40 51°20.635 3°2.393 36.2 1.1 222 -999
2011-09-19 09:25:50 51°20.633 3°2.389 36.2 1.1 222 -999
2011-09-19 09:26:00 51°20.631 3°2.386 31.8 1 220 -999
2011-09-19 09:26:10 51°20.629 3°2.383 31.8 1 220 -999
2011-09-19 09:26:20 51°20.627 3°2.379 31.8 1 220 -999
2011-09-19 09:26:30 51°20.625 3°2.376 31.8 1 220 -999
2011-09-19 09:26:40 51°20.622 3°2.373 31.8 1 220 -999
2011-09-19 09:26:50 51°20.62 3°2.37 31.8 1 220 -999
2011-09-19 09:27:00 51°20.618 3°2.367 28.3 1 222 -999
2011-09-19 09:27:10 51°20.616 3°2.364 28.3 1 222 -999
2011-09-19 09:27:20 51°20.613 3°2.361 28.3 1 222 -999
2011-09-19 09:27:30 51°20.611 3°2.358 28.3 1 222 -999
2011-09-19 09:27:40 51°20.608 3°2.354 28.3 1 222 -999
2011-09-19 09:27:50 51°20.606 3°2.352 28.3 1 222 -999
2011-09-19 09:28:00 51°20.604 3°2.349 29.6 1.1 226 -999
2011-09-19 09:28:10 51°20.602 3°2.346 29.6 1.1 226 -999
2011-09-19 09:28:20 51°20.599 3°2.343 29.6 1.1 226 -999
2011-09-19 09:28:30 51°20.597 3°2.341 29.6 1.1 226 -999
2011-09-19 09:28:40 51°20.594 3°2.337 29.6 1.1 226 -999
2011-09-19 09:28:50 51°20.593 3°2.336 29.6 1.1 226 -999
2011-09-19 09:29:00 51°20.594 3°2.336 38.8 0.59 17 -999
2011-09-19 09:29:10 51°20.597 3°2.339 38.8 0.59 17 -999
2011-09-19 09:29:20 51°20.602 3°2.345 38.8 0.59 17 -999
2011-09-19 09:29:30 51°20.608 3°2.35 38.8 0.59 17 -999
2011-09-19 09:29:40 51°20.617 3°2.358 38.8 0.59 17 -999
2011-09-19 09:29:50 51°20.626 3°2.365 38.8 0.59 17 -999
2011-09-19 09:30:00 51°20.638 3°2.373 34.2 4.29 24 -999
2011-09-19 09:30:10 51°20.648 3°2.38 34.2 4.29 24 -999
2011-09-19 09:30:20 51°20.661 3°2.39 34.2 4.29 24 -999
2011-09-19 09:30:30 51°20.672 3°2.399 34.2 4.29 24 -999
2011-09-19 09:30:40 51°20.685 3°2.411 34.2 4.29 24 -999
2011-09-19 09:30:50 51°20.695 3°2.424 34.2 4.29 24 -999
2011-09-19 09:31:00 51°20.707 3°2.44 45.7 5.09 43 -999
2011-09-19 09:31:10 51°20.717 3°2.456 45.7 5.09 43 -999
2011-09-19 09:31:20 51°20.726 3°2.474 45.7 5.09 43 -999
2011-09-19 09:31:30 51°20.733 3°2.493 45.7 5.09 43 -999
2011-09-19 09:31:40 51°20.743 3°2.52 45.7 5.09 43 -999
2011-09-19 09:31:50 51°20.749 3°2.546 45.7 5.09 43 -999
2011-09-19 09:32:00 51°20.757 3°2.58 68 7.5 71 -999
2011-09-19 09:32:10 51°20.764 3°2.61 68 7.5 71 -999
2011-09-19 09:32:20 51°20.773 3°2.651 68 7.5 71 -999
2011-09-19 09:32:30 51°20.782 3°2.69 68 7.5 71 -999
2011-09-19 09:32:40 51°20.791 3°2.731 68 7.5 71 -999
2011-09-19 09:32:50 51°20.799 3°2.769 68 7.5 71 -999
2011-09-19 09:33:00 51°20.808 3°2.816 72.2 10 74 -999
2011-09-19 09:33:10 51°20.817 3°2.863 72.2 10 74 -999
2011-09-19 09:33:20 51°20.826 3°2.906 72.2 10 74 -999
2011-09-19 09:33:30 51°20.833 3°2.946 72.2 10 74 -999
2011-09-19 09:33:40 51°20.843 3°2.994 72.2 10 74 -999
2011-09-19 09:33:50 51°20.851 3°3.034 72.2 10 74 -999
2011-09-19 09:34:00 51°20.86 3°3.084 74.4 10.69 74 -999
2011-09-19 09:34:10 51°20.867 3°3.124 74.4 10.69 74 -999
2011-09-19 09:34:20 51°20.877 3°3.173 74.4 10.69 74 -999
2011-09-19 09:34:30 51°20.885 3°3.213 74.4 10.69 74 -999
2011-09-19 09:34:40 51°20.894 3°3.263 74.4 10.69 74 -999
2011-09-19 09:34:50 51°20.902 3°3.307 74.4 10.69 74 -999
2011-09-19 09:35:00 51°20.914 3°3.351 70 10.59 70 -999
2011-09-19 09:35:10 51°20.924 3°3.395 70 10.59 70 -999
2011-09-19 09:35:20 51°20.932 3°3.439 70 10.59 70 -999
2011-09-19 09:35:30 51°20.94 3°3.479 70 10.59 70 -999
2011-09-19 09:35:40 51°20.951 3°3.528 70 10.59 70 -999
2011-09-19 09:35:50 51°20.961 3°3.572 70 10.59 70 -999
2011-09-19 09:36:00 51°20.972 3°3.615 69 10.4 67 -999
2011-09-19 09:36:10 51°20.979 3°3.65 69 10.4 67 -999
2011-09-19 09:36:20 51°20.99 3°3.698 69 10.4 67 -999
2011-09-19 09:36:30 51°20.999 3°3.738 69 10.4 67 -999
2011-09-19 09:36:40 51°21.01 3°3.786 69 10.4 67 -999
2011-09-19 09:36:50 51°21.018 3°3.826 69 10.4 67 -999
2011-09-19 09:37:00 51°21.028 3°3.874 72.5 10.4 74 -999
2011-09-19 09:37:10 51°21.036 3°3.914 72.5 10.4 74 -999
2011-09-19 09:37:20 51°21.047 3°3.963 72.5 10.4 74 -999
2011-09-19 09:37:30 51°21.055 3°4.002 72.5 10.4 74 -999
2011-09-19 09:37:40 51°21.066 3°4.051 72.5 10.4 74 -999
2011-09-19 09:37:50 51°21.074 3°4.091 72.5 10.4 74 -999
2011-09-19 09:38:00 51°21.085 3°4.139 72.7 10.5 72 -999
2011-09-19 09:38:10 51°21.093 3°4.178 72.7 10.5 72 -999
2011-09-19 09:38:20 51°21.103 3°4.227 72.7 10.5 72 -999
2011-09-19 09:38:30 51°21.111 3°4.268 72.7 10.5 72 -999
2011-09-19 09:38:40 51°21.12 3°4.317 72.7 10.5 72 -999
2011-09-19 09:38:50 51°21.13 3°4.356 72.7 10.5 72 -999
2011-09-19 09:39:00 51°21.143 3°4.402 68.2 10.5 63 -999
2011-09-19 09:39:10 51°21.156 3°4.443 68.2 10.5 63 -999
2011-09-19 09:39:20 51°21.169 3°4.485 68.2 10.5 63 -999
2011-09-19 09:39:30 51°21.181 3°4.522 68.2 10.5 63 -999
2011-09-19 09:39:40 51°21.196 3°4.567 68.2 10.5 63 -999
2011-09-19 09:39:50 51°21.208 3°4.605 68.2 10.5 63 -999
2011-09-19 09:40:00 51°21.224 3°4.651 62.5 10.59 64 -999
2011-09-19 09:40:10 51°21.237 3°4.688 62.5 10.59 64 -999
2011-09-19 09:40:20 51°21.253 3°4.733 62.5 10.59 64 -999
2011-09-19 09:40:30 51°21.267 3°4.77 62.5 10.59 64 -999
2011-09-19 09:40:40 51°21.282 3°4.816 62.5 10.59 64 -999
2011-09-19 09:40:50 51°21.295 3°4.854 62.5 10.59 64 -999
2011-09-19 09:41:00 51°21.311 3°4.9 61.6 10.69 61 -999
2011-09-19 09:41:10 51°21.324 3°4.942 61.6 10.69 61 -999
2011-09-19 09:41:20 51°21.339 3°4.989 61.6 10.69 61 -999
2011-09-19 09:41:30 51°21.352 3°5.032 61.6 10.69 61 -999
2011-09-19 09:41:40 51°21.365 3°5.074 61.6 10.69 61 -999
2011-09-19 09:41:50 51°21.379 3°5.117 61.6 10.69 61 -999
2011-09-19 09:42:00 51°21.392 3°5.159 67.2 10.69 58 -999
2011-09-19 09:42:10 51°21.404 3°5.197 67.2 10.69 58 -999
2011-09-19 09:42:20 51°21.42 3°5.243 67.2 10.69 58 -999
2011-09-19 09:42:30 51°21.432 3°5.28 67.2 10.69 58 -999
2011-09-19 09:42:40 51°21.448 3°5.327 67.2 10.69 58 -999
2011-09-19 09:42:50 51°21.461 3°5.369 67.2 10.69 58 -999
2011-09-19 09:43:00 51°21.475 3°5.41 64 10.69 59 -999
2011-09-19 09:43:10 51°21.486 3°5.449 64 10.69 59 -999
2011-09-19 09:43:20 51°21.501 3°5.495 64 10.69 59 -999
2011-09-19 09:43:30 51°21.512 3°5.529 64 10.69 59 -999
2011-09-19 09:43:40 51°21.527 3°5.576 64 10.69 59 -999
2011-09-19 09:43:50 51°21.539 3°5.613 64 10.69 59 -999
2011-09-19 09:44:00 51°21.555 3°5.658 64.2 10.69 65 -999
2011-09-19 09:44:10 51°21.567 3°5.697 64.2 10.69 65 -999
2011-09-19 09:44:20 51°21.583 3°5.742 64.2 10.69 65 -999
2011-09-19 09:44:30 51°21.596 3°5.779 64.2 10.69 65 -999
2011-09-19 09:44:40 51°21.613 3°5.824 64.2 10.69 65 -999
2011-09-19 09:44:50 51°21.627 3°5.861 64.2 10.69 65 -999
2011-09-19 09:45:00 51°21.644 3°5.907 61.7 10.9 61 -999
2011-09-19 09:45:10 51°21.657 3°5.945 61.7 10.9 61 -999
2011-09-19 09:45:20 51°21.674 3°5.99 61.7 10.9 61 -999
2011-09-19 09:45:30 51°21.685 3°6.029 61.7 10.9 61 -999
2011-09-19 09:45:40 51°21.702 3°6.075 61.7 10.9 61 -999
2011-09-19 09:45:50 51°21.715 3°6.114 61.7 10.9 61 -999
2011-09-19 09:46:00 51°21.729 3°6.162 67.2 10.9 62 -999
2011-09-19 09:46:10 51°21.741 3°6.201 67.2 10.9 62 -999
2011-09-19 09:46:20 51°21.755 3°6.25 67.2 10.9 62 -999
2011-09-19 09:46:30 51°21.767 3°6.288 67.2 10.9 62 -999
2011-09-19 09:46:40 51°21.781 3°6.337 67.2 10.9 62 -999
2011-09-19 09:46:50 51°21.793 3°6.375 67.2 10.9 62 -999
2011-09-19 09:47:00 51°21.808 3°6.423 64.2 11 64 -999
2011-09-19 09:47:10 51°21.821 3°6.461 64.2 11 64 -999
2011-09-19 09:47:20 51°21.837 3°6.508 64.2 11 64 -999
2011-09-19 09:47:30 51°21.851 3°6.545 64.2 11 64 -999
2011-09-19 09:47:40 51°21.867 3°6.591 64.2 11 64 -999
2011-09-19 09:47:50 51°21.88 3°6.63 64.2 11 64 -999
2011-09-19 09:48:00 51°21.896 3°6.676 62.7 10.9 60 -999
2011-09-19 09:48:10 51°21.911 3°6.723 62.7 10.9 60 -999
2011-09-19 09:48:20 51°21.925 3°6.767 62.7 10.9 60 -999
2011-09-19 09:48:30 51°21.938 3°6.81 62.7 10.9 60 -999
2011-09-19 09:48:40 51°21.952 3°6.854 62.7 10.9 60 -999
2011-09-19 09:48:50 51°21.964 3°6.898 62.7 10.9 60 -999
2011-09-19 09:49:00 51°21.977 3°6.943 66.4 10.9 68 -999
2011-09-19 09:49:10 51°21.983 3°6.98 66.4 10.9 68 -999
2011-09-19 09:49:20 51°21.992 3°7.032 66.4 10.9 68 -999
2011-09-19 09:49:30 51°21.998 3°7.074 66.4 10.9 68 -999
2011-09-19 09:49:40 51°22.006 3°7.126 66.4 10.9 68 -999
2011-09-19 09:49:50 51°22.011 3°7.17 66.4 10.9 68 -999
2011-09-19 09:50:00 51°22.018 3°7.221 76.7 10.9 79 -999
2011-09-19 09:50:10 51°22.025 3°7.264 76.7 10.9 79 -999
2011-09-19 09:50:20 51°22.033 3°7.315 76.7 10.9 79 -999
2011-09-19 09:50:30 51°22.039 3°7.358 76.7 10.9 79 -999
2011-09-19 09:50:40 51°22.047 3°7.408 76.7 10.9 79 -999
2011-09-19 09:50:50 51°22.053 3°7.45 76.7 10.9 79 -999
2011-09-19 09:51:00 51°22.062 3°7.502 74.9 10.8 75 -999
2011-09-19 09:51:10 51°22.068 3°7.544 74.9 10.8 75 -999
2011-09-19 09:51:20 51°22.077 3°7.594 74.9 10.8 75 -999
2011-09-19 09:51:30 51°22.084 3°7.636 74.9 10.8 75 -999
2011-09-19 09:51:40 51°22.095 3°7.686 74.9 10.8 75 -999
2011-09-19 09:51:50 51°22.102 3°7.727 74.9 10.8 75 -999
2011-09-19 09:52:00 51°22.112 3°7.776 71.7 10.59 72 -999
2011-09-19 09:52:10 51°22.118 3°7.818 71.7 10.59 72 -999
2011-09-19 09:52:20 51°22.124 3°7.869 71.7 10.59 72 -999
2011-09-19 09:52:30 51°22.128 3°7.911 71.7 10.59 72 -999
2011-09-19 09:52:40 51°22.132 3°7.962 71.7 10.59 72 -999
2011-09-19 09:52:50 51°22.135 3°8.003 71.7 10.59 72 -999
2011-09-19 09:53:00 51°22.138 3°8.055 82.9 10.69 88 -999
2011-09-19 09:53:10 51°22.143 3°8.106 82.9 10.69 88 -999
2011-09-19 09:53:20 51°22.147 3°8.152 82.9 10.69 88 -999
2011-09-19 09:53:30 51°22.151 3°8.194 82.9 10.69 88 -999
2011-09-19 09:53:40 51°22.156 3°8.245 82.9 10.69 88 -999
2011-09-19 09:53:50 51°22.16 3°8.292 82.9 10.69 88 -999
2011-09-19 09:54:00 51°22.164 3°8.334 80.5 10.5 82 -999
2011-09-19 09:54:10 51°22.167 3°8.385 80.5 10.5 82 -999
2011-09-19 09:54:20 51°22.171 3°8.43 80.5 10.5 82 -999
2011-09-19 09:54:30 51°22.175 3°8.476 80.5 10.5 82 -999
2011-09-19 09:54:40 51°22.18 3°8.522 80.5 10.5 82 -999
2011-09-19 09:54:50 51°22.186 3°8.563 80.5 10.5 82 -999
2011-09-19 09:55:00 51°22.191 3°8.613 78 10.5 78 -999
2011-09-19 09:55:10 51°22.197 3°8.659 78 10.5 78 -999
2011-09-19 09:55:20 51°22.203 3°8.704 78 10.5 78 -999
2011-09-19 09:55:30 51°22.208 3°8.75 78 10.5 78 -999
2011-09-19 09:55:40 51°22.213 3°8.796 78 10.5 78 -999
2011-09-19 09:55:50 51°22.218 3°8.838 78 10.5 78 -999
2011-09-19 09:56:00 51°22.223 3°8.889 80 10.59 80 -999
2011-09-19 09:56:10 51°22.226 3°8.927 80 10.59 80 -999
2011-09-19 09:56:20 51°22.231 3°8.977 80 10.59 80 -999
2011-09-19 09:56:30 51°22.235 3°9.019 80 10.59 80 -999
2011-09-19 09:56:40 51°22.24 3°9.07 80 10.59 80 -999
2011-09-19 09:56:50 51°22.243 3°9.112 80 10.59 80 -999
2011-09-19 09:57:00 51°22.247 3°9.164 81 10.59 78 -999
2011-09-19 09:57:10 51°22.248 3°9.206 81 10.59 78 -999
2011-09-19 09:57:20 51°22.251 3°9.254 81 10.59 78 -999
2011-09-19 09:57:30 51°22.254 3°9.302 81 10.59 78 -999
2011-09-19 09:57:40 51°22.255 3°9.354 81 10.59 78 -999
2011-09-19 09:57:50 51°22.257 3°9.396 81 10.59 78 -999
2011-09-19 09:58:00 51°22.261 3°9.447 81.7 10.59 85 -999
2011-09-19 09:58:10 51°22.265 3°9.49 81.7 10.59 85 -999
2011-09-19 09:58:20 51°22.269 3°9.542 81.7 10.59 85 -999
2011-09-19 09:58:30 51°22.273 3°9.585 81.7 10.59 85 -999
2011-09-19 09:58:40 51°22.276 3°9.638 81.7 10.59 85 -999
2011-09-19 09:58:50 51°22.28 3°9.68 81.7 10.59 85 -999
2011-09-19 09:59:00 51°22.285 3°9.731 79.9 10.59 79 -999
2011-09-19 09:59:10 51°22.288 3°9.773 79.9 10.59 79 -999
2011-09-19 09:59:20 51°22.292 3°9.825 79.9 10.59 79 -999
2011-09-19 09:59:30 51°22.296 3°9.873 79.9 10.59 79 -999
2011-09-19 09:59:40 51°22.301 3°9.921 79.9 10.59 79 -999
2011-09-19 09:59:50 51°22.305 3°9.968 79.9 10.59 79 -999
2011-09-19 10:00:00 51°22.309 3°10.016 80.9 10.8 83 -999
2011-09-19 10:00:10 51°22.312 3°10.059 80.9 10.8 83 -999
2011-09-19 10:00:20 51°22.315 3°10.111 80.9 10.8 83 -999
2011-09-19 10:00:30 51°22.317 3°10.154 80.9 10.8 83 -999
2011-09-19 10:00:40 51°22.319 3°10.207 80.9 10.8 83 -999
2011-09-19 10:00:50 51°22.323 3°10.25 80.9 10.8 83 -999
2011-09-19 10:01:00 51°22.326 3°10.303 82 10.9 84 -999
2011-09-19 10:01:10 51°22.329 3°10.35 82 10.9 84 -999
2011-09-19 10:01:20 51°22.333 3°10.404 82 10.9 84 -999
2011-09-19 10:01:30 51°22.338 3°10.452 82 10.9 84 -999
2011-09-19 10:01:40 51°22.341 3°10.501 82 10.9 84 -999
2011-09-19 10:01:50 51°22.345 3°10.545 82 10.9 84 -999
2011-09-19 10:02:00 51°22.349 3°10.598 82.9 11.09 82 -999
2011-09-19 10:02:10 51°22.352 3°10.642 82.9 11.09 82 -999
2011-09-19 10:02:20 51°22.356 3°10.695 82.9 11.09 82 -999
2011-09-19 10:02:30 51°22.36 3°10.738 82.9 11.09 82 -999
2011-09-19 10:02:40 51°22.364 3°10.792 82.9 11.09 82 -999
2011-09-19 10:02:50 51°22.367 3°10.841 82.9 11.09 82 -999
2011-09-19 10:03:00 51°22.372 3°10.889 80.7 11 82 -999
2011-09-19 10:03:10 51°22.376 3°10.938 80.7 11 82 -999
2011-09-19 10:03:20 51°22.378 3°10.986 80.7 11 82 -999
2011-09-19 10:03:30 51°22.38 3°11.03 80.7 11 82 -999
2011-09-19 10:03:40 51°22.383 3°11.084 80.7 11 82 -999
2011-09-19 10:03:50 51°22.385 3°11.127 80.7 11 82 -999
2011-09-19 10:04:00 51°22.389 3°11.181 81.5 11 86 -999
2011-09-19 10:04:10 51°22.393 3°11.219 81.5 11 86 -999
2011-09-19 10:04:20 51°22.397 3°11.272 81.5 11 86 -999
2011-09-19 10:04:30 51°22.401 3°11.315 81.5 11 86 -999
2011-09-19 10:04:40 51°22.405 3°11.368 81.5 11 86 -999
2011-09-19 10:04:50 51°22.41 3°11.411 81.5 11 86 -999
2011-09-19 10:05:00 51°22.415 3°11.464 81.4 11.09 82 -999
2011-09-19 10:05:10 51°22.419 3°11.508 81.4 11.09 82 -999
2011-09-19 10:05:20 51°22.424 3°11.561 81.4 11.09 82 -999
2011-09-19 10:05:30 51°22.428 3°11.604 81.4 11.09 82 -999
2011-09-19 10:05:40 51°22.43 3°11.658 81.4 11.09 82 -999
2011-09-19 10:05:50 51°22.431 3°11.702 81.4 11.09 82 -999
2011-09-19 10:06:00 51°22.433 3°11.755 87 10.8 85 -999
2011-09-19 10:06:10 51°22.434 3°11.798 87 10.8 85 -999
2011-09-19 10:06:20 51°22.434 3°11.851 87 10.8 85 -999
2011-09-19 10:06:30 51°22.436 3°11.895 87 10.8 85 -999
2011-09-19 10:06:40 51°22.441 3°11.948 87 10.8 85 -999
2011-09-19 10:06:50 51°22.445 3°11.99 87 10.8 85 -999
2011-09-19 10:07:00 51°22.448 3°12.043 84.2 10.9 82 -999
2011-09-19 10:07:10 51°22.451 3°12.086 84.2 10.9 82 -999
2011-09-19 10:07:20 51°22.455 3°12.139 84.2 10.9 82 -999
2011-09-19 10:07:30 51°22.458 3°12.182 84.2 10.9 82 -999
2011-09-19 10:07:40 51°22.465 3°12.234 84.2 10.9 82 -999
2011-09-19 10:07:50 51°22.469 3°12.276 84.2 10.9 82 -999
2011-09-19 10:08:00 51°22.477 3°12.326 77.4 10.8 76 -999
2011-09-19 10:08:10 51°22.486 3°12.379 77.4 10.8 76 -999
2011-09-19 10:08:20 51°22.493 3°12.426 77.4 10.8 76 -999
2011-09-19 10:08:30 51°22.499 3°12.469 77.4 10.8 76 -999
2011-09-19 10:08:40 51°22.506 3°12.521 77.4 10.8 76 -999
2011-09-19 10:08:50 51°22.512 3°12.569 77.4 10.8 76 -999
2011-09-19 10:09:00 51°22.518 3°12.616 79.5 10.9 80 -999
2011-09-19 10:09:10 51°22.523 3°12.66 79.5 10.9 80 -999
2011-09-19 10:09:20 51°22.527 3°12.701 79.5 10.9 80 -999
2011-09-19 10:09:30 51°22.531 3°12.736 79.5 10.9 80 -999
2011-09-19 10:09:40 51°22.537 3°12.774 79.5 10.9 80 -999
2011-09-19 10:09:50 51°22.541 3°12.803 79.5 10.9 80 -999
2011-09-19 10:10:00 51°22.546 3°12.835 76.5 6.59 76 -999
2011-09-19 10:10:10 51°22.55 3°12.862 76.5 6.59 76 -999
2011-09-19 10:10:20 51°22.553 3°12.886 76.5 6.59 76 -999
2011-09-19 10:10:30 51°22.556 3°12.906 76.5 6.59 76 -999
2011-09-19 10:10:40 51°22.559 3°12.93 76.5 6.59 76 -999
2011-09-19 10:10:50 51°22.562 3°12.95 76.5 6.59 76 -999
2011-09-19 10:11:00 51°22.565 3°12.969 77 4.4 78 -999
2011-09-19 10:11:10 51°22.567 3°12.985 77 4.4 78 -999
2011-09-19 10:11:20 51°22.57 3°13.005 77 4.4 78 -999
2011-09-19 10:11:30 51°22.573 3°13.023 77 4.4 78 -999
2011-09-19 10:11:40 51°22.575 3°13.044 77 4.4 78 -999
2011-09-19 10:11:50 51°22.578 3°13.061 77 4.4 78 -999
2011-09-19 10:12:00 51°22.58 3°13.082 78.9 4.5 81 -999
2011-09-19 10:12:10 51°22.582 3°13.1 78.9 4.5 81 -999
2011-09-19 10:12:20 51°22.585 3°13.122 78.9 4.5 81 -999
2011-09-19 10:12:30 51°22.587 3°13.141 78.9 4.5 81 -999
2011-09-19 10:12:40 51°22.589 3°13.164 78.9 4.5 81 -999
2011-09-19 10:12:50 51°22.591 3°13.182 78.9 4.5 81 -999
2011-09-19 10:13:00 51°22.592 3°13.203 81.4 4.2 83 -999
2011-09-19 10:13:10 51°22.594 3°13.218 81.4 4.2 83 -999
2011-09-19 10:13:20 51°22.596 3°13.233 81.4 4.2 83 -999
2011-09-19 10:13:30 51°22.599 3°13.242 81.4 4.2 83 -999
2011-09-19 10:13:40 51°22.604 3°13.251 81.4 4.2 83 -999
2011-09-19 10:13:50 51°22.608 3°13.256 81.4 4.2 83 -999
2011-09-19 10:14:00 51°22.613 3°13.261 47.7 1.69 32 -999
2011-09-19 10:14:10 51°22.616 3°13.264 47.7 1.69 32 -999
2011-09-19 10:14:20 51°22.619 3°13.265 47.7 1.69 32 -999
2011-09-19 10:14:30 51°22.62 3°13.264 47.7 1.69 32 -999
2011-09-19 10:14:40 51°22.621 3°13.262 47.7 1.69 32 -999
2011-09-19 10:14:50 51°22.622 3°13.261 47.7 1.69 32 -999
2011-09-19 10:15:00 51°22.622 3°13.259 26.6 0.5 297 -999
2011-09-19 10:15:10 51°22.623 3°13.258 26.6 0.5 297 -999
2011-09-19 10:15:20 51°22.623 3°13.256 26.6 0.5 297 -999
2011-09-19 10:15:30 51°22.624 3°13.254 26.6 0.5 297 -999
2011-09-19 10:15:40 51°22.625 3°13.251 26.6 0.5 297 -999
2011-09-19 10:15:50 51°22.625 3°13.25 26.6 0.5 297 -999
2011-09-19 10:16:00 51°22.625 3°13.247 15.9 0.5 277 -999
2011-09-19 10:16:10 51°22.625 3°13.245 15.9 0.5 277 -999
2011-09-19 10:16:20 51°22.625 3°13.242 15.9 0.5 277 -999
2011-09-19 10:16:30 51°22.624 3°13.24 15.9 0.5 277 -999
2011-09-19 10:16:40 51°22.624 3°13.237 15.9 0.5 277 -999
2011-09-19 10:16:50 51°22.624 3°13.235 15.9 0.5 277 -999
2011-09-19 10:17:00 51°22.624 3°13.231 15.4 0.59 263 -999
2011-09-19 10:17:10 51°22.624 3°13.229 15.4 0.59 263 -999
2011-09-19 10:17:20 51°22.623 3°13.225 15.4 0.59 263 -999
2011-09-19 10:17:30 51°22.623 3°13.223 15.4 0.59 263 -999
2011-09-19 10:17:40 51°22.623 3°13.22 15.4 0.59 263 -999
2011-09-19 10:17:50 51°22.622 3°13.216 15.4 0.59 263 -999
2011-09-19 10:18:00 51°22.622 3°13.213 9.9 0.69 256 -999
2011-09-19 10:18:10 51°22.621 3°13.21 9.9 0.69 256 -999
2011-09-19 10:18:20 51°22.621 3°13.208 9.9 0.69 256 -999
2011-09-19 10:18:30 51°22.62 3°13.206 9.9 0.69 256 -999
2011-09-19 10:18:40 51°22.62 3°13.203 9.9 0.69 256 -999
2011-09-19 10:18:50 51°22.62 3°13.2 9.9 0.69 256 -999
2011-09-19 10:19:00 51°22.619 3°13.197 13 0.59 248 -999
2011-09-19 10:19:10 51°22.619 3°13.195 13 0.59 248 -999
2011-09-19 10:19:20 51°22.618 3°13.192 13 0.59 248 -999
2011-09-19 10:19:30 51°22.617 3°13.19 13 0.59 248 -999
2011-09-19 10:19:40 51°22.617 3°13.187 13 0.59 248 -999
2011-09-19 10:19:50 51°22.616 3°13.185 13 0.59 248 -999
2011-09-19 10:20:00 51°22.615 3°13.182 14.8 0.69 251 -999
2011-09-19 10:20:10 51°22.615 3°13.18 14.8 0.69 251 -999
2011-09-19 10:20:20 51°22.614 3°13.177 14.8 0.69 251 -999
2011-09-19 10:20:30 51°22.614 3°13.175 14.8 0.69 251 -999
2011-09-19 10:20:40 51°22.613 3°13.173 14.8 0.69 251 -999
2011-09-19 10:20:50 51°22.612 3°13.171 14.8 0.69 251 -999
2011-09-19 10:21:00 51°22.612 3°13.168 16.8 0.59 247 -999
2011-09-19 10:21:10 51°22.611 3°13.166 16.8 0.59 247 -999
2011-09-19 10:21:20 51°22.611 3°13.163 16.8 0.59 247 -999
2011-09-19 10:21:30 51°22.61 3°13.16 16.8 0.59 247 -999
2011-09-19 10:21:40 51°22.609 3°13.157 16.8 0.59 247 -999
2011-09-19 10:21:50 51°22.608 3°13.155 16.8 0.59 247 -999
2011-09-19 10:22:00 51°22.607 3°13.152 15.8 0.69 247 -999
2011-09-19 10:22:10 51°22.607 3°13.15 15.8 0.69 247 -999
2011-09-19 10:22:20 51°22.605 3°13.147 15.8 0.69 247 -999
2011-09-19 10:22:30 51°22.605 3°13.145 15.8 0.69 247 -999
2011-09-19 10:22:40 51°22.603 3°13.142 15.8 0.69 247 -999
2011-09-19 10:22:50 51°22.602 3°13.14 15.8 0.69 247 -999
2011-09-19 10:23:00 51°22.601 3°13.137 20.8 0.8 231 -999
2011-09-19 10:23:10 51°22.6 3°13.134 20.8 0.8 231 -999
2011-09-19 10:23:20 51°22.599 3°13.131 20.8 0.8 231 -999
2011-09-19 10:23:30 51°22.598 3°13.129 20.8 0.8 231 -999
2011-09-19 10:23:40 51°22.596 3°13.126 20.8 0.8 231 -999
2011-09-19 10:23:50 51°22.595 3°13.123 20.8 0.8 231 -999
2011-09-19 10:24:00 51°22.594 3°13.12 26.8 0.59 239 -999
2011-09-19 10:24:10 51°22.593 3°13.118 26.8 0.59 239 -999
2011-09-19 10:24:20 51°22.592 3°13.115 26.8 0.59 239 -999
2011-09-19 10:24:30 51°22.591 3°13.113 26.8 0.59 239 -999
2011-09-19 10:24:40 51°22.59 3°13.11 26.8 0.59 239 -999
2011-09-19 10:24:50 51°22.589 3°13.107 26.8 0.59 239 -999
2011-09-19 10:25:00 51°22.589 3°13.104 29.3 0.69 248 -999
2011-09-19 10:25:10 51°22.588 3°13.102 29.3 0.69 248 -999
2011-09-19 10:25:20 51°22.587 3°13.1 29.3 0.69 248 -999
2011-09-19 10:25:30 51°22.586 3°13.097 29.3 0.69 248 -999
2011-09-19 10:25:40 51°22.585 3°13.094 29.3 0.69 248 -999
2011-09-19 10:25:50 51°22.584 3°13.091 29.3 0.69 248 -999
2011-09-19 10:26:00 51°22.583 3°13.089 30.5 0.69 244 -999
2011-09-19 10:26:10 51°22.583 3°13.086 30.5 0.69 244 -999
2011-09-19 10:26:20 51°22.582 3°13.083 30.5 0.69 244 -999
2011-09-19 10:26:30 51°22.582 3°13.081 30.5 0.69 244 -999
2011-09-19 10:26:40 51°22.583 3°13.079 30.5 0.69 244 -999
2011-09-19 10:26:50 51°22.585 3°13.078 30.5 0.69 244 -999
2011-09-19 10:27:00 51°22.59 3°13.076 16.6 1.8 350 -999
2011-09-19 10:27:10 51°22.595 3°13.075 16.6 1.8 350 -999
2011-09-19 10:27:20 51°22.603 3°13.071 16.6 1.8 350 -999
2011-09-19 10:27:30 51°22.61 3°13.065 16.6 1.8 350 -999
2011-09-19 10:27:40 51°22.62 3°13.056 16.6 1.8 350 -999
2011-09-19 10:27:50 51°22.629 3°13.045 16.6 1.8 350 -999
2011-09-19 10:28:00 51°22.638 3°13.028 324.5 4.79 309 -999
2011-09-19 10:28:10 51°22.645 3°13.011 324.5 4.79 309 -999
2011-09-19 10:28:20 51°22.653 3°12.987 324.5 4.79 309 -999
2011-09-19 10:28:30 51°22.659 3°12.965 324.5 4.79 309 -999
2011-09-19 10:28:40 51°22.668 3°12.934 324.5 4.79 309 -999
2011-09-19 10:28:50 51°22.677 3°12.906 324.5 4.79 309 -999
2011-09-19 10:29:00 51°22.688 3°12.87 303.5 8.4 298 -999
2011-09-19 10:29:10 51°22.699 3°12.84 303.5 8.4 298 -999
2011-09-19 10:29:20 51°22.711 3°12.8 303.5 8.4 298 -999
2011-09-19 10:29:30 51°22.723 3°12.766 303.5 8.4 298 -999
2011-09-19 10:29:40 51°22.737 3°12.723 303.5 8.4 298 -999
2011-09-19 10:29:50 51°22.749 3°12.687 303.5 8.4 298 -999
2011-09-19 10:30:00 51°22.766 3°12.642 305.6 10.9 300 -999
2011-09-19 10:30:10 51°22.784 3°12.595 305.6 10.9 300 -999
2011-09-19 10:30:20 51°22.8 3°12.553 305.6 10.9 300 -999
2011-09-19 10:30:30 51°22.816 3°12.513 305.6 10.9 300 -999
2011-09-19 10:30:40 51°22.836 3°12.463 305.6 10.9 300 -999
2011-09-19 10:30:50 51°22.852 3°12.421 305.6 10.9 300 -999
2011-09-19 10:31:00 51°22.871 3°12.367 305.6 12.8 300 -999
2011-09-19 10:31:10 51°22.889 3°12.317 305.6 12.8 300 -999
2011-09-19 10:31:20 51°22.906 3°12.266 305.6 12.8 300 -999
2011-09-19 10:31:30 51°22.922 3°12.221 305.6 12.8 300 -999
2011-09-19 10:31:40 51°22.942 3°12.165 305.6 12.8 300 -999
2011-09-19 10:31:50 51°22.958 3°12.119 305.6 12.8 300 -999
2011-09-19 10:32:00 51°22.977 3°12.062 303.6 13.19 298 -999
2011-09-19 10:32:10 51°22.993 3°12.01 303.6 13.19 298 -999
2011-09-19 10:32:20 51°23.01 3°11.958 303.6 13.19 298 -999
2011-09-19 10:32:30 51°23.025 3°11.912 303.6 13.19 298 -999
2011-09-19 10:32:40 51°23.043 3°11.854 303.6 13.19 298 -999
2011-09-19 10:32:50 51°23.061 3°11.803 303.6 13.19 298 -999
2011-09-19 10:33:00 51°23.08 3°11.753 307.1 13.19 301 -999
2011-09-19 10:33:10 51°23.096 3°11.714 307.1 13.19 301 -999
2011-09-19 10:33:20 51°23.117 3°11.66 307.1 13.19 301 -999
2011-09-19 10:33:30 51°23.134 3°11.616 307.1 13.19 301 -999
2011-09-19 10:33:40 51°23.154 3°11.561 307.1 13.19 301 -999
2011-09-19 10:33:50 51°23.17 3°11.515 307.1 13.19 301 -999
2011-09-19 10:34:00 51°23.189 3°11.458 304.1 13.09 298 -999
2011-09-19 10:34:10 51°23.205 3°11.412 304.1 13.09 298 -999
2011-09-19 10:34:20 51°23.223 3°11.356 304.1 13.09 298 -999
2011-09-19 10:34:30 51°23.239 3°11.31 304.1 13.09 298 -999
2011-09-19 10:34:40 51°23.257 3°11.254 304.1 13.09 298 -999
2011-09-19 10:34:50 51°23.273 3°11.209 304.1 13.09 298 -999
2011-09-19 10:35:00 51°23.295 3°11.156 307.8 13 302 -999
2011-09-19 10:35:10 51°23.312 3°11.112 307.8 13 302 -999
2011-09-19 10:35:20 51°23.334 3°11.06 307.8 13 302 -999
2011-09-19 10:35:30 51°23.351 3°11.017 307.8 13 302 -999
2011-09-19 10:35:40 51°23.372 3°10.963 307.8 13 302 -999
2011-09-19 10:35:50 51°23.388 3°10.918 307.8 13 302 -999
2011-09-19 10:36:00 51°23.407 3°10.864 304.8 12.8 298 -999
2011-09-19 10:36:10 51°23.422 3°10.818 304.8 12.8 298 -999
2011-09-19 10:36:20 51°23.441 3°10.763 304.8 12.8 298 -999
2011-09-19 10:36:30 51°23.457 3°10.717 304.8 12.8 298 -999
2011-09-19 10:36:40 51°23.477 3°10.664 304.8 12.8 298 -999
2011-09-19 10:36:50 51°23.494 3°10.619 304.8 12.8 298 -999
2011-09-19 10:37:00 51°23.515 3°10.565 307.8 13.09 302 -999
2011-09-19 10:37:10 51°23.532 3°10.521 307.8 13.09 302 -999
2011-09-19 10:37:20 51°23.553 3°10.467 307.8 13.09 302 -999
2011-09-19 10:37:30 51°23.568 3°10.421 307.8 13.09 302 -999
2011-09-19 10:37:40 51°23.586 3°10.365 307.8 13.09 302 -999
2011-09-19 10:37:50 51°23.6 3°10.318 307.8 13.09 302 -999
2011-09-19 10:38:00 51°23.618 3°10.261 302.6 13.09 297 -999
2011-09-19 10:38:10 51°23.636 3°10.204 302.6 13.09 297 -999
2011-09-19 10:38:20 51°23.654 3°10.153 302.6 13.09 297 -999
2011-09-19 10:38:30 51°23.673 3°10.104 302.6 13.09 297 -999
2011-09-19 10:38:40 51°23.695 3°10.061 302.6 13.09 297 -999
2011-09-19 10:38:50 51°23.721 3°10.024 302.6 13.09 297 -999
2011-09-19 10:39:00 51°23.748 3°9.991 330 12.3 324 -999
2011-09-19 10:39:10 51°23.777 3°9.961 330 12.3 324 -999
2011-09-19 10:39:20 51°23.806 3°9.933 330 12.3 324 -999
2011-09-19 10:39:30 51°23.835 3°9.907 330 12.3 324 -999
2011-09-19 10:39:40 51°23.865 3°9.881 330 12.3 324 -999
2011-09-19 10:39:50 51°23.896 3°9.855 330 12.3 324 -999
2011-09-19 10:40:00 51°23.926 3°9.828 338.5 12.4 331 -999
2011-09-19 10:40:10 51°23.95 3°9.806 338.5 12.4 331 -999
2011-09-19 10:40:20 51°23.982 3°9.774 338.5 12.4 331 -999
2011-09-19 10:40:30 51°24.009 3°9.749 338.5 12.4 331 -999
2011-09-19 10:40:40 51°24.042 3°9.718 338.5 12.4 331 -999
2011-09-19 10:40:50 51°24.069 3°9.693 338.5 12.4 331 -999
2011-09-19 10:41:00 51°24.102 3°9.662 337.6 12.5 330 -999
2011-09-19 10:41:10 51°24.13 3°9.638 337.6 12.5 330 -999
2011-09-19 10:41:20 51°24.163 3°9.607 337.6 12.5 330 -999
2011-09-19 10:41:30 51°24.19 3°9.582 337.6 12.5 330 -999
2011-09-19 10:41:40 51°24.224 3°9.554 337.6 12.5 330 -999
2011-09-19 10:41:50 51°24.252 3°9.531 337.6 12.5 330 -999
2011-09-19 10:42:00 51°24.287 3°9.505 341.8 12.4 335 -999
2011-09-19 10:42:10 51°24.315 3°9.485 341.8 12.4 335 -999
2011-09-19 10:42:20 51°24.349 3°9.461 341.8 12.4 335 -999
2011-09-19 10:42:30 51°24.376 3°9.44 341.8 12.4 335 -999
2011-09-19 10:42:40 51°24.41 3°9.415 341.8 12.4 335 -999
2011-09-19 10:42:50 51°24.437 3°9.394 341.8 12.4 335 -999
2011-09-19 10:43:00 51°24.47 3°9.367 339.1 12.09 332 -999
2011-09-19 10:43:10 51°24.499 3°9.34 339.1 12.09 332 -999
2011-09-19 10:43:20 51°24.527 3°9.303 339.1 12.09 332 -999
2011-09-19 10:43:30 51°24.547 3°9.266 339.1 12.09 332 -999
2011-09-19 10:43:40 51°24.567 3°9.216 339.1 12.09 332 -999
2011-09-19 10:43:50 51°24.579 3°9.165 339.1 12.09 332 -999
2011-09-19 10:44:00 51°24.587 3°9.111 289.6 12.5 282 -999
2011-09-19 10:44:10 51°24.591 3°9.056 289.6 12.5 282 -999
2011-09-19 10:44:20 51°24.592 3°8.999 289.6 12.5 282 -999
2011-09-19 10:44:30 51°24.592 3°8.942 289.6 12.5 282 -999
2011-09-19 10:44:40 51°24.59 3°8.885 289.6 12.5 282 -999
2011-09-19 10:44:50 51°24.587 3°8.828 289.6 12.5 282 -999
2011-09-19 10:45:00 51°24.584 3°8.771 266.1 13 265 -999
2011-09-19 10:45:10 51°24.583 3°8.725 266.1 13 265 -999
2011-09-19 10:45:20 51°24.584 3°8.662 266.1 13 265 -999
2011-09-19 10:45:30 51°24.586 3°8.611 266.1 13 265 -999
2011-09-19 10:45:40 51°24.589 3°8.549 266.1 13 265 -999
2011-09-19 10:45:50 51°24.593 3°8.498 266.1 13 265 -999
2011-09-19 10:46:00 51°24.601 3°8.437 284 12.69 281 -999
2011-09-19 10:46:10 51°24.608 3°8.388 284 12.69 281 -999
2011-09-19 10:46:20 51°24.618 3°8.328 284 12.69 281 -999
2011-09-19 10:46:30 51°24.626 3°8.279 284 12.69 281 -999
2011-09-19 10:46:40 51°24.636 3°8.22 284 12.69 281 -999